createdAt,value
2018-06-21T00:00:59.176Z,95629.01
2018-06-21T00:03:29.082Z,95627.02
2018-06-21T00:05:58.771Z,95630.25
2018-06-21T00:08:28.491Z,95627.80
2018-06-21T00:10:58.109Z,95627.92
2018-06-21T00:13:27.853Z,95627.03
2018-06-21T00:15:57.558Z,95626.92
2018-06-21T00:18:27.554Z,95626.44
2018-06-21T00:20:57.413Z,95626.48
2018-06-21T00:23:26.983Z,95620.20
2018-06-21T00:25:56.538Z,95620.39
2018-06-21T00:28:26.321Z,95624.59
2018-06-21T00:30:56.120Z,95622.98
2018-06-21T00:33:25.916Z,95621.53
2018-06-21T00:35:55.638Z,95616.47
2018-06-21T00:38:25.332Z,95623.05
2018-06-21T00:40:55.119Z,95621.11
2018-06-21T00:43:24.882Z,95619.99
2018-06-21T00:45:54.565Z,95616.72
2018-06-21T00:48:24.234Z,95625.48
2018-06-21T00:50:53.997Z,95625.34
2018-06-21T00:53:23.504Z,95624.08
2018-06-21T00:56:03.770Z,95613.20
2018-06-21T00:58:34.002Z,95621.48
2018-06-21T01:01:03.691Z,95616.61
2018-06-21T01:03:33.330Z,95619.76
2018-06-21T01:06:03.001Z,95614.84
2018-06-21T01:08:32.625Z,95616.74
2018-06-21T01:11:02.430Z,95614.89
2018-06-21T01:13:32.104Z,95611.27
2018-06-21T01:16:01.932Z,95608.17
2018-06-21T01:18:31.834Z,95616.15
2018-06-21T01:21:01.494Z,95612.99
2018-06-21T01:23:31.395Z,95616.05
2018-06-21T01:26:01.102Z,95609.41
2018-06-21T01:28:30.754Z,95604.61
2018-06-21T01:31:00.485Z,95608.74
2018-06-21T01:33:30.150Z,95610.14
2018-06-21T01:35:59.985Z,95606.07
2018-06-21T01:38:29.770Z,95614.11
2018-06-21T01:40:59.648Z,95604.72
2018-06-21T01:43:29.345Z,95600.83
2018-06-21T01:45:59.068Z,95604.34
2018-06-21T01:48:28.762Z,95599.60
2018-06-21T01:50:58.520Z,95600.66
2018-06-21T01:53:28.188Z,95598.45
2018-06-21T01:55:57.933Z,95603.94
2018-06-21T01:58:43.630Z,95603.48
2018-06-21T02:01:13.326Z,95609.32
2018-06-21T02:03:43.107Z,95603.69
2018-06-21T02:06:12.809Z,95607.09
2018-06-21T02:08:43.430Z,95607.98
2018-06-21T02:11:13.506Z,95605.65
2018-06-21T02:13:43.116Z,95607.88
2018-06-21T02:16:12.803Z,95602.62
2018-06-21T02:18:42.621Z,95603.11
2018-06-21T02:21:12.413Z,95602.31
2018-06-21T02:23:42.139Z,95600.22
2018-06-21T02:26:11.841Z,95608.53
2018-06-21T02:28:41.670Z,95601.36
2018-06-21T02:31:11.328Z,95610.23
2018-06-21T02:33:40.981Z,95613.66
2018-06-21T02:36:10.691Z,95605.73
2018-06-21T02:38:40.432Z,95605.05
2018-06-21T02:41:10.229Z,95611.84
2018-06-21T02:43:39.908Z,95610.45
2018-06-21T02:46:09.697Z,95607.96
2018-06-21T02:48:39.469Z,95605.33
2018-06-21T02:51:09.250Z,95607.83
2018-06-21T02:53:38.869Z,95606.72
2018-06-21T02:56:08.708Z,95607.95
2018-06-21T02:58:38.477Z,95602.02
2018-06-21T03:01:08.353Z,95605.72
2018-06-21T03:03:38.083Z,95600.25
2018-06-21T03:06:07.913Z,95600.25
2018-06-21T03:08:37.703Z,95604.80
2018-06-21T03:11:07.433Z,95599.50
2018-06-21T03:13:37.215Z,95600.89
2018-06-21T03:16:07.076Z,95607.16
2018-06-21T03:18:36.784Z,95606.14
2018-06-21T03:21:06.730Z,95605.40
2018-06-21T03:23:36.436Z,95603.97
2018-06-21T03:26:06.317Z,95602.66
2018-06-21T03:28:36.015Z,95610.78
2018-06-21T03:31:05.710Z,95610.12
2018-06-21T03:33:35.488Z,95615.05
2018-06-21T03:36:05.348Z,95613.82
2018-06-21T03:38:35.124Z,95610.23
2018-06-21T03:41:04.853Z,95614.41
2018-06-21T03:43:34.580Z,95605.57
2018-06-21T03:46:04.350Z,95609.34
2018-06-21T03:48:34.450Z,95611.87
2018-06-21T03:51:04.261Z,95607.19
2018-06-21T03:53:34.066Z,95609.68
2018-06-21T03:56:03.868Z,95600.31
2018-06-21T03:58:33.758Z,95598.59
2018-06-21T04:01:03.482Z,95598.34
2018-06-21T04:03:33.348Z,95604.33
2018-06-21T04:06:03.013Z,95605.58
2018-06-21T04:08:32.877Z,95601.53
2018-06-21T04:11:02.668Z,95603.75
2018-06-21T04:13:32.451Z,95597.39
2018-06-21T04:16:02.193Z,95601.45
2018-06-21T04:18:37.428Z,95600.81
2018-06-21T04:21:08.972Z,95606.66
2018-06-21T04:23:38.967Z,95606.41
2018-06-21T04:26:08.698Z,95609.32
2018-06-21T04:28:39.453Z,95607.36
2018-06-21T04:31:09.219Z,95608.70
2018-06-21T04:33:38.849Z,95618.22
2018-06-21T04:36:08.513Z,95611.13
2018-06-21T04:38:38.284Z,95616.08
2018-06-21T04:41:08.022Z,95614.82
2018-06-21T04:43:37.748Z,95608.33
2018-06-21T04:46:07.539Z,95600.54
2018-06-21T04:48:37.220Z,95602.47
2018-06-21T04:51:07.121Z,95604.13
2018-06-21T04:53:36.820Z,95607.28
2018-06-21T04:56:06.580Z,95604.89
2018-06-21T04:58:36.287Z,95600.77
2018-06-21T05:01:06.120Z,95600.99
2018-06-21T05:03:36.040Z,95599.97
2018-06-21T05:06:05.915Z,95598.09
2018-06-21T05:08:35.639Z,95596.77
2018-06-21T05:11:05.389Z,95599.30
2018-06-21T05:13:35.264Z,95593.44
2018-06-21T05:16:04.912Z,95595.06
2018-06-21T05:18:34.747Z,95593.61
2018-06-21T05:21:04.439Z,95594.42
2018-06-21T05:23:34.153Z,95588.70
2018-06-21T05:26:03.787Z,95582.58
2018-06-21T05:28:33.609Z,95588.98
2018-06-21T05:31:03.295Z,95585.56
2018-06-21T05:33:33.354Z,95586.05
2018-06-21T05:36:03.079Z,95583.19
2018-06-21T05:38:32.692Z,95578.29
2018-06-21T05:41:02.474Z,95576.31
2018-06-21T05:43:32.883Z,95576.70
2018-06-21T05:46:02.530Z,95575.35
2018-06-21T05:48:32.236Z,95576.40
2018-06-21T05:51:01.884Z,95587.42
2018-06-21T05:53:31.738Z,95582.45
2018-06-21T05:56:01.843Z,95577.64
2018-06-21T05:58:32.117Z,95573.01
2018-06-21T06:01:01.950Z,95573.35
2018-06-21T06:03:31.587Z,95567.29
2018-06-21T06:06:01.360Z,95579.56
2018-06-21T06:08:31.258Z,95576.95
2018-06-21T06:11:01.088Z,95571.12
2018-06-21T06:13:30.844Z,95572.87
2018-06-21T06:16:00.543Z,95573.52
2018-06-21T06:18:30.304Z,95570.55
2018-06-21T06:21:00.089Z,95567.35
2018-06-21T06:23:29.828Z,95560.89
2018-06-21T06:26:00.256Z,95566.50
2018-06-21T06:28:30.640Z,95566.80
2018-06-21T06:31:00.801Z,95570.30
2018-06-21T06:33:31.455Z,95563.20
2018-06-21T06:36:01.778Z,95560.62
2018-06-21T06:38:32.132Z,95557.36
2018-06-21T06:41:02.339Z,95548.87
2018-06-21T06:43:32.818Z,95559.63
2018-06-21T06:46:03.063Z,95554.56
2018-06-21T06:48:34.375Z,95554.72
2018-06-21T06:51:04.545Z,95556.47
2018-06-21T06:53:35.131Z,95554.65
2018-06-21T06:56:05.450Z,95552.52
2018-06-21T06:58:35.717Z,95545.37
2018-06-21T07:01:05.432Z,95544.23
2018-06-21T07:03:35.151Z,95540.68
2018-06-21T07:06:05.048Z,95548.75
2018-06-21T07:08:34.835Z,95539.84
2018-06-21T07:11:04.601Z,95528.53
2018-06-21T07:13:34.195Z,95525.66
2018-06-21T07:16:03.963Z,95537.77
2018-06-21T07:18:33.737Z,95519.28
2018-06-21T07:21:03.516Z,95514.55
2018-06-21T07:23:33.345Z,95520.75
2018-06-21T07:26:03.113Z,95517.16
2018-06-21T07:28:32.895Z,95514.66
2018-06-21T07:31:02.473Z,95502.13
2018-06-21T07:33:32.194Z,95502.39
2018-06-21T07:36:02.741Z,95510.27
2018-06-21T07:38:32.871Z,95504.44
2018-06-21T07:41:03.198Z,95495.65
2018-06-21T07:43:33.902Z,95499.19
2018-06-21T07:46:03.657Z,95494.92
2018-06-21T07:48:34.579Z,95491.36
2018-06-21T07:51:04.311Z,95482.14
2018-06-21T07:53:34.151Z,95485.42
2018-06-21T07:56:04.890Z,95487.09
2018-06-21T07:58:36.173Z,95484.09
2018-06-21T08:01:06.680Z,95476.45
2018-06-21T08:03:37.125Z,95477.01
2018-06-21T08:06:07.655Z,95474.87
2018-06-21T08:08:38.328Z,95472.70
2018-06-21T08:11:08.841Z,95474.23
2018-06-21T08:13:39.547Z,95470.76
2018-06-21T08:16:10.311Z,95467.16
2018-06-21T08:18:41.430Z,95470.18
2018-06-21T08:21:11.860Z,95456.72
2018-06-21T08:23:42.115Z,95459.36
2018-06-21T08:26:12.662Z,95450.52
2018-06-21T08:28:43.703Z,95452.21
2018-06-21T08:31:14.070Z,95444.84
2018-06-21T08:33:44.372Z,95446.03
2018-06-21T08:36:14.698Z,95441.70
2018-06-21T08:38:45.835Z,95442.20
2018-06-21T08:41:16.040Z,95439.23
2018-06-21T08:43:46.333Z,95440.17
2018-06-21T08:46:16.661Z,95437.98
2018-06-21T08:48:46.792Z,95436.06
2018-06-21T08:51:16.440Z,95431.91
2018-06-21T08:53:46.299Z,95428.01
2018-06-21T08:56:16.168Z,95428.37
2018-06-21T08:58:45.796Z,95423.67
2018-06-21T09:01:15.654Z,95422.86
2018-06-21T09:03:45.605Z,95418.08
2018-06-21T09:06:15.730Z,95417.05
2018-06-21T09:08:45.567Z,95408.75
2018-06-21T09:11:15.351Z,95408.22
2018-06-21T09:13:45.254Z,95405.87
2018-06-21T09:16:15.110Z,95402.43
2018-06-21T09:18:44.980Z,95400.59
2018-06-21T09:21:14.771Z,95400.80
2018-06-21T09:23:44.593Z,95403.02
2018-06-21T09:26:14.344Z,95398.78
2018-06-21T09:28:44.145Z,95391.58
2018-06-21T09:31:14.057Z,95382.70
2018-06-21T09:33:43.828Z,95382.87
2018-06-21T09:36:13.692Z,95382.51
2018-06-21T09:38:48.377Z,95382.47
2018-06-21T09:41:23.237Z,95375.02
2018-06-21T09:44:03.822Z,95368.69
2018-06-21T09:46:34.411Z,95370.94
2018-06-21T09:49:03.689Z,95360.45
2018-06-21T09:51:33.407Z,95357.56
2018-06-21T09:54:03.185Z,95352.36
2018-06-21T09:56:32.889Z,95356.12
2018-06-21T09:59:02.551Z,95352.94
2018-06-21T10:01:32.209Z,95356.50
2018-06-21T10:04:01.951Z,95348.33
2018-06-21T10:06:31.732Z,95348.21
2018-06-21T10:09:01.555Z,95342.69
2018-06-21T10:11:31.451Z,95342.77
2018-06-21T10:14:01.215Z,95342.30
2018-06-21T10:16:30.946Z,95331.30
2018-06-21T10:19:00.831Z,95330.34
2018-06-21T10:21:30.603Z,95328.59
2018-06-21T10:24:00.442Z,95325.16
2018-06-21T10:26:30.123Z,95317.50
2018-06-21T10:28:59.951Z,95317.44
2018-06-21T10:31:29.726Z,95308.55
2018-06-21T10:33:59.482Z,95304.41
2018-06-21T10:36:29.268Z,95298.22
2018-06-21T10:38:59.046Z,95300.47
2018-06-21T10:41:28.877Z,95295.47
2018-06-21T10:43:58.716Z,95284.83
2018-06-21T10:46:28.469Z,95287.45
2018-06-21T10:48:58.122Z,95280.86
2018-06-21T10:51:27.889Z,95283.16
2018-06-21T10:53:57.699Z,95281.98
2018-06-21T10:56:27.418Z,95274.66
2018-06-21T10:58:57.092Z,95274.73
2018-06-21T11:01:26.982Z,95266.30
2018-06-21T11:03:56.742Z,95259.27
2018-06-21T11:06:26.832Z,95258.61
2018-06-21T11:08:56.684Z,95255.87
2018-06-21T11:11:26.485Z,95251.73
2018-06-21T11:13:56.217Z,95253.20
2018-06-21T11:16:26.117Z,95253.92
2018-06-21T11:18:55.941Z,95251.22
2018-06-21T11:21:25.717Z,95252.61
2018-06-21T11:23:55.463Z,95249.92
2018-06-21T11:26:25.170Z,95248.89
2018-06-21T11:28:54.950Z,95245.79
2018-06-21T11:31:24.832Z,95242.66
2018-06-21T11:33:54.501Z,95245.56
2018-06-21T11:36:24.268Z,95238.41
2018-06-21T11:38:53.945Z,95243.71
2018-06-21T11:41:23.769Z,95235.72
2018-06-21T11:43:53.580Z,95241.59
2018-06-21T11:46:23.378Z,95243.09
2018-06-21T11:48:53.151Z,95231.02
2018-06-21T11:51:22.894Z,95223.59
2018-06-21T11:53:52.663Z,95230.77
2018-06-21T11:56:22.450Z,95217.97
2018-06-21T11:58:52.284Z,95215.48
2018-06-21T12:01:21.911Z,95212.50
2018-06-21T12:03:51.812Z,95214.41
2018-06-21T12:06:21.598Z,95215.69
2018-06-21T12:08:51.347Z,95208.33
2018-06-21T12:11:21.227Z,95204.87
2018-06-21T12:13:51.123Z,95210.33
2018-06-21T12:16:21.363Z,95215.58
2018-06-21T12:18:51.028Z,95202.52
2018-06-21T12:21:20.856Z,95196.21
2018-06-21T12:23:50.593Z,95194.55
2018-06-21T12:26:20.523Z,95186.72
2018-06-21T12:28:50.308Z,95175.32
2018-06-21T12:31:20.183Z,95175.19
2018-06-21T12:33:50.725Z,95171.88
2018-06-21T12:36:20.347Z,95165.81
2018-06-21T12:38:50.076Z,95166.94
2018-06-21T12:41:19.764Z,95166.38
2018-06-21T12:43:49.491Z,95167.09
2018-06-21T12:46:19.190Z,95161.52
2018-06-21T12:48:48.797Z,95158.17
2018-06-21T12:51:18.615Z,95161.87
2018-06-21T12:53:48.403Z,95151.33
2018-06-21T12:56:18.253Z,95154.36
2018-06-21T12:58:48.094Z,95164.52
2018-06-21T13:01:17.687Z,95161.03
2018-06-21T13:03:47.588Z,95155.31
2018-06-21T13:06:17.408Z,95159.80
2018-06-21T13:08:57.694Z,95155.75
2018-06-21T13:11:37.912Z,95156.80
2018-06-21T13:14:25.039Z,95164.34
2018-06-21T13:16:54.959Z,95167.09
2018-06-21T13:19:24.736Z,95171.17
2018-06-21T13:21:54.487Z,95173.88
2018-06-21T13:24:24.264Z,95170.59
2018-06-21T13:26:53.999Z,95167.39
2018-06-21T13:29:23.844Z,95165.06
2018-06-21T13:31:53.670Z,95166.66
2018-06-21T13:34:23.358Z,95172.42
2018-06-21T13:36:53.524Z,95160.80
2018-06-21T13:39:23.236Z,95159.08
2018-06-21T13:41:53.017Z,95165.53
2018-06-21T13:44:22.697Z,95161.09
2018-06-21T13:48:21.348Z,95158.56
2018-06-21T13:50:51.169Z,95162.06
2018-06-21T13:53:20.911Z,95163.23
2018-06-21T13:55:50.623Z,95166.34
2018-06-21T13:58:20.398Z,95166.89
2018-06-21T14:00:50.135Z,95168.89
2018-06-21T14:03:19.954Z,95167.91
2018-06-21T14:05:49.855Z,95160.47
2018-06-21T14:08:19.843Z,95160.06
2018-06-21T14:10:49.673Z,95153.79
2018-06-21T14:13:19.373Z,95155.59
2018-06-21T14:15:49.055Z,95161.83
2018-06-21T14:18:18.791Z,95158.72
2018-06-21T14:20:48.592Z,95158.17
2018-06-21T14:23:18.309Z,95163.23
2018-06-21T14:25:48.143Z,95154.47
2018-06-21T14:28:17.863Z,95165.38
2018-06-21T14:30:47.628Z,95159.72
2018-06-21T14:33:17.421Z,95160.70
2018-06-21T14:35:47.193Z,95150.73
2018-06-21T14:38:17.087Z,95150.17
2018-06-21T14:40:46.730Z,95153.89
2018-06-21T14:43:16.614Z,95144.45
2018-06-21T14:45:46.259Z,95143.44
2018-06-21T14:48:15.947Z,95146.98
2018-06-21T14:50:45.630Z,95142.05
2018-06-21T14:53:15.438Z,95142.08
2018-06-21T14:55:45.368Z,95152.28
2018-06-21T14:58:15.222Z,95151.86
2018-06-21T15:00:44.850Z,95150.41
2018-06-21T15:03:14.700Z,95161.48
2018-06-21T15:05:44.532Z,95151.69
2018-06-21T15:08:14.306Z,95154.78
2018-06-21T15:10:44.061Z,95159.36
2018-06-21T15:13:14.202Z,95156.23
2018-06-21T15:15:43.920Z,95157.40
2018-06-21T15:18:13.670Z,95158.09
2018-06-21T15:20:43.519Z,95154.21
2018-06-21T15:23:13.242Z,95154.50
2018-06-21T15:25:43.175Z,95150.24
2018-06-21T15:28:13.090Z,95148.22
2018-06-21T15:30:42.754Z,95143.79
2018-06-21T15:33:12.491Z,95154.91
2018-06-21T15:35:42.220Z,95148.91
2018-06-21T15:38:12.019Z,95149.03
2018-06-21T15:40:42.198Z,95152.24
2018-06-21T15:43:11.977Z,95144.87
2018-06-21T15:45:41.716Z,95146.61
2018-06-21T15:48:11.483Z,95146.03
2018-06-21T15:50:41.396Z,95147.85
2018-06-21T15:53:11.116Z,95153.97
2018-06-21T15:55:40.872Z,95151.65
2018-06-21T15:58:10.677Z,95161.21
2018-06-21T16:00:40.347Z,95155.33
2018-06-21T16:03:10.129Z,95162.88
2018-06-21T16:05:39.921Z,95160.86
2018-06-21T16:08:09.644Z,95160.51
2018-06-21T16:10:39.324Z,95159.94
2018-06-21T16:13:09.027Z,95156.60
2018-06-21T16:15:38.793Z,95159.23
2018-06-21T16:18:08.677Z,95160.25
2018-06-21T16:20:38.455Z,95161.91
2018-06-21T16:23:08.164Z,95159.06
2018-06-21T16:25:37.895Z,95078.97
2018-06-21T16:28:07.796Z,95168.32
2018-06-21T16:30:38.235Z,95172.67
2018-06-21T16:33:08.252Z,95185.13
2018-06-21T16:35:38.004Z,95177.84
2018-06-21T16:38:07.796Z,95183.19
2018-06-21T16:40:37.507Z,95179.74
2018-06-21T16:43:07.519Z,95185.34
2018-06-21T16:45:37.217Z,95190.06
2018-06-21T16:48:07.034Z,95184.49
2018-06-21T16:50:36.688Z,95201.36
2018-06-21T16:53:06.548Z,95194.15
2018-06-21T16:55:36.327Z,95201.38
2018-06-21T16:58:06.101Z,95201.48
2018-06-21T17:00:35.811Z,95193.09
2018-06-21T17:03:05.488Z,95193.52
2018-06-21T17:05:35.126Z,95193.07
2018-06-21T17:08:04.884Z,95193.53
2018-06-21T17:10:34.641Z,95199.63
2018-06-21T17:13:04.461Z,95202.64
2018-06-21T17:15:34.300Z,95205.90
2018-06-21T17:18:04.004Z,95212.48
2018-06-21T17:20:33.818Z,95212.70
2018-06-21T17:23:03.603Z,95218.19
2018-06-21T17:25:33.415Z,95009.08
2018-06-21T17:28:03.238Z,95225.55
2018-06-21T17:30:33.060Z,95222.97
2018-06-21T17:33:02.777Z,95222.22
2018-06-21T17:35:32.503Z,95224.45
2018-06-21T17:38:02.250Z,95229.80
2018-06-21T17:40:32.362Z,95232.20
2018-06-21T17:43:02.234Z,95234.61
2018-06-21T17:45:32.799Z,95240.56
2018-06-21T17:48:02.506Z,95238.06
2018-06-21T17:50:32.235Z,95234.63
2018-06-21T17:53:01.991Z,95236.21
2018-06-21T17:55:31.736Z,95243.17
2018-06-21T17:58:01.457Z,95238.09
2018-06-21T18:00:31.285Z,95235.00
2018-06-21T18:03:01.035Z,95241.56
2018-06-21T18:05:30.811Z,95243.29
2018-06-21T18:08:00.456Z,95249.78
2018-06-21T18:10:30.181Z,95249.09
2018-06-21T18:12:59.978Z,95241.74
2018-06-21T18:15:29.679Z,95246.97
2018-06-21T18:17:59.288Z,95245.68
2018-06-21T18:20:29.063Z,95247.27
2018-06-21T18:22:58.713Z,95249.83
2018-06-21T18:25:28.442Z,95253.31
2018-06-21T18:27:59.193Z,95250.33
2018-06-21T18:30:28.949Z,95255.53
2018-06-21T18:32:58.654Z,95257.77
2018-06-21T18:35:28.502Z,95260.66
2018-06-21T18:37:58.300Z,95258.75
2018-06-21T18:40:28.153Z,95255.81
2018-06-21T18:42:57.904Z,95257.87
2018-06-21T18:45:27.731Z,95262.91
2018-06-21T18:47:57.711Z,95267.28
2018-06-21T18:50:27.432Z,95268.67
2018-06-21T18:52:57.583Z,95265.17
2018-06-21T18:55:27.361Z,95272.59
2018-06-21T18:57:57.612Z,95266.52
2018-06-21T19:00:27.216Z,95266.52
2018-06-21T19:02:56.984Z,95267.66
2018-06-21T19:05:27.399Z,95266.38
2018-06-21T19:08:02.596Z,95270.66
2018-06-21T19:10:38.028Z,95277.81
2018-06-21T19:13:07.752Z,95280.88
2018-06-21T19:15:38.466Z,95272.62
2018-06-21T19:18:08.105Z,95278.98
2018-06-21T19:20:37.929Z,95285.66
2018-06-21T19:23:07.812Z,95283.55
2018-06-21T19:25:37.557Z,95288.92
2018-06-21T19:28:07.331Z,95278.84
2018-06-21T19:30:37.008Z,95286.38
2018-06-21T19:33:07.157Z,95283.91
2018-06-21T19:35:37.614Z,95293.53
2018-06-21T19:38:08.138Z,95298.24
2018-06-21T19:40:38.755Z,95298.75
2018-06-21T19:43:09.621Z,95306.83
2018-06-21T19:45:40.658Z,95312.70
2018-06-21T19:48:10.664Z,95314.59
2018-06-21T19:50:40.476Z,95319.69
2018-06-21T19:53:10.229Z,95321.63
2018-06-21T19:55:40.784Z,95322.66
2018-06-21T19:58:10.558Z,95320.02
2018-06-21T20:00:40.683Z,95314.58
2018-06-21T20:03:10.916Z,95312.06
2018-06-21T20:05:40.973Z,95312.98
2018-06-21T20:08:10.789Z,95307.67
2018-06-21T20:10:40.484Z,95302.64
2018-06-21T20:13:10.277Z,95303.02
2018-06-21T20:15:51.984Z,95297.92
2018-06-21T20:18:22.665Z,95292.14
2018-06-21T20:20:52.448Z,95285.13
2018-06-21T20:23:23.071Z,95279.41
2018-06-21T20:25:52.796Z,95276.95
2018-06-21T20:28:22.584Z,95270.06
2018-06-21T20:30:52.204Z,95270.61
2018-06-21T20:33:21.848Z,95274.63
2018-06-21T20:35:51.586Z,95282.21
2018-06-21T20:38:21.272Z,95283.64
2018-06-21T20:40:50.951Z,95286.86
2018-06-21T20:43:20.804Z,95283.28
2018-06-21T20:45:50.463Z,95283.32
2018-06-21T20:48:20.335Z,95278.78
2018-06-21T20:50:50.209Z,95275.08
2018-06-21T20:53:19.980Z,95272.39
2018-06-21T20:55:49.685Z,95274.66
2018-06-21T20:58:19.440Z,95282.14
2018-06-21T21:00:49.093Z,95279.64
2018-06-21T21:03:18.779Z,95281.93
2018-06-21T21:05:48.471Z,95276.99
2018-06-21T21:08:18.282Z,95278.09
2018-06-21T21:10:47.977Z,95275.77
2018-06-21T21:13:17.733Z,95272.31
2018-06-21T21:15:47.491Z,95269.18
2018-06-21T21:18:17.285Z,95268.02
2018-06-21T21:20:47.120Z,95271.58
2018-06-21T21:23:17.005Z,95263.11
2018-06-21T21:25:46.734Z,95260.06
2018-06-21T21:28:16.415Z,95263.98
2018-06-21T21:30:46.020Z,95263.31
2018-06-21T21:33:15.796Z,95261.89
2018-06-21T21:35:45.512Z,95263.42
2018-06-21T21:38:15.343Z,95254.48
2018-06-21T21:40:45.104Z,95252.94
2018-06-21T21:43:14.791Z,95252.70
2018-06-21T21:45:44.460Z,95251.48
2018-06-21T21:48:14.177Z,95251.09
2018-06-21T21:50:44.148Z,95246.72
2018-06-21T21:53:13.926Z,95245.56
2018-06-21T21:55:43.679Z,95240.80
2018-06-21T21:58:13.432Z,95243.57
2018-06-21T22:00:46.927Z,95240.87
2018-06-21T22:03:16.629Z,95241.65
2018-06-21T22:05:47.229Z,95237.86
2018-06-21T22:08:17.044Z,95242.34
2018-06-21T22:10:47.665Z,95245.69
2018-06-21T22:13:17.741Z,95243.86
2018-06-21T22:15:48.341Z,95237.23
2018-06-21T22:18:18.104Z,95233.81
2018-06-21T22:20:47.879Z,95226.02
2018-06-21T22:23:17.648Z,95234.94
2018-06-21T22:25:47.390Z,95227.55
2018-06-21T22:28:17.155Z,95230.35
2018-06-21T22:30:46.768Z,95224.91
2018-06-21T22:33:16.459Z,95230.98
2018-06-21T22:35:46.152Z,95226.89
2018-06-21T22:38:15.744Z,95227.61
2018-06-21T22:40:45.415Z,95230.98
2018-06-21T22:43:15.074Z,95230.77
2018-06-21T22:45:44.891Z,95228.95
2018-06-21T22:48:14.656Z,95231.58
2018-06-21T22:50:44.237Z,95191.72
2018-06-21T22:53:14.097Z,95234.87
2018-06-21T22:55:43.864Z,95242.05
2018-06-21T22:58:13.625Z,95241.80
2018-06-21T23:00:43.344Z,95242.12
2018-06-21T23:03:13.114Z,95246.52
2018-06-21T23:05:42.935Z,95245.40
2018-06-21T23:08:12.697Z,95245.03
2018-06-21T23:10:42.461Z,95243.16
2018-06-21T23:13:12.113Z,95242.49
2018-06-21T23:15:41.803Z,95239.34
2018-06-21T23:18:11.616Z,95234.05
2018-06-21T23:20:41.367Z,95236.89
2018-06-21T23:23:10.989Z,95239.11
2018-06-21T23:25:40.641Z,95228.55
2018-06-21T23:28:10.289Z,95234.16
2018-06-21T23:30:40.072Z,95225.32
2018-06-21T23:33:09.700Z,95226.09
2018-06-21T23:35:39.456Z,95222.37
2018-06-21T23:38:09.149Z,95224.98
2018-06-21T23:40:38.765Z,95222.02
2018-06-21T23:43:09.305Z,95218.44
2018-06-21T23:45:39.740Z,95223.15
2018-06-21T23:48:10.416Z,95217.44
2018-06-21T23:50:41.016Z,95220.89
2018-06-21T23:53:11.492Z,95225.01
2018-06-21T23:55:42.379Z,95230.71
2018-06-21T23:58:12.112Z,95225.14
